Marksville, Louisiana
Current Conditions -  °F | °C
As of 9:33 AM on Monday 22 Dec 2014 (Local Time) from KAEX Reporting Station
Moderate Fog Moderate Fog  
Wind Chill: 54°   Ceiling: 200
Heat Index: 54°   Visibility: 0.5mi
Dew Point: 54°   Wind: 5mph
Humidity: 100%   Direction: 140°SE
Pressure: 29.78"   Gusts: NA
Location:  31.13°N, 92.06°W
Report Text: KAEX 221533Z AUTO 14004KT 1/2SM FG VV002 12/12 A2978 RMK AO2 T01220122
Loading
Personal Weather Stations






























Interactive Weather Map New forecast layout! Learn more

10-Day Weather Forecast

Advertisements
Track Severe Weather on mobile